sensor_id;sensor_type;location;lat;lon;timestamp;pressure;altitude;pressure_sealevel;temperature;humidity
59240;BME280;45010;53.640;10.578;2023-02-11T00:00:38;102131.19;;;24.64;31.78
59240;BME280;45010;53.640;10.578;2023-02-11T00:03:39;102138.03;;;24.80;31.72
59240;BME280;45010;53.640;10.578;2023-02-11T00:06:39;102135.38;;;24.80;31.78
59240;BME280;45010;53.640;10.578;2023-02-11T00:09:39;102134.53;;;24.80;31.83
59240;BME280;45010;53.640;10.578;2023-02-11T00:12:40;102127.38;;;24.80;31.85
59240;BME280;45010;53.640;10.578;2023-02-11T00:15:41;102116.69;;;24.80;31.87
59240;BME280;45010;53.640;10.578;2023-02-11T00:18:42;102112.00;;;24.82;31.69
59240;BME280;45010;53.640;10.578;2023-02-11T00:21:43;102102.97;;;24.83;31.86
59240;BME280;45010;53.640;10.578;2023-02-11T00:24:43;102094.75;;;24.78;31.69
59240;BME280;45010;53.640;10.578;2023-02-11T00:27:44;102091.44;;;24.76;31.65
59240;BME280;45010;53.640;10.578;2023-02-11T00:30:44;102080.06;;;24.96;31.36
59240;BME280;45010;53.640;10.578;2023-02-11T00:33:45;102060.25;;;24.77;31.55
59240;BME280;45010;53.640;10.578;2023-02-11T00:36:45;102068.06;;;24.78;31.71
59240;BME280;45010;53.640;10.578;2023-02-11T00:39:46;102066.38;;;24.77;31.60
59240;BME280;45010;53.640;10.578;2023-02-11T00:42:46;102078.94;;;24.77;31.64
59240;BME280;45010;53.640;10.578;2023-02-11T00:45:47;102075.41;;;24.76;31.37
59240;BME280;45010;53.640;10.578;2023-02-11T00:48:47;102068.44;;;24.75;31.35
59240;BME280;45010;53.640;10.578;2023-02-11T00:51:48;102056.13;;;24.74;31.32
59240;BME280;45010;53.640;10.578;2023-02-11T00:54:48;102049.53;;;24.70;31.20
59240;BME280;45010;53.640;10.578;2023-02-11T00:57:48;102037.22;;;24.69;31.35
59240;BME280;45010;53.640;10.578;2023-02-11T01:00:49;102043.59;;;24.68;31.45
59240;BME280;45010;53.640;10.578;2023-02-11T01:03:49;102036.81;;;24.65;31.20
59240;BME280;45010;53.640;10.578;2023-02-11T01:06:50;102020.75;;;24.58;31.13
59240;BME280;45010;53.640;10.578;2023-02-11T01:09:51;102026.09;;;24.58;31.47
59240;BME280;45010;53.640;10.578;2023-02-11T01:12:51;102019.13;;;24.57;31.44
59240;BME280;45010;53.640;10.578;2023-02-11T01:15:52;102002.06;;;24.45;31.48
59240;BME280;45010;53.640;10.578;2023-02-11T01:18:52;102001.06;;;24.53;31.27
59240;BME280;45010;53.640;10.578;2023-02-11T01:21:52;102009.25;;;24.51;31.36
59240;BME280;45010;53.640;10.578;2023-02-11T01:24:53;102001.66;;;24.48;31.49
59240;BME280;45010;53.640;10.578;2023-02-11T01:27:53;102001.03;;;24.46;31.48
59240;BME280;45010;53.640;10.578;2023-02-11T01:30:54;102001.44;;;24.43;31.51
59240;BME280;45010;53.640;10.578;2023-02-11T01:33:54;101994.47;;;24.42;31.64
59240;BME280;45010;53.640;10.578;2023-02-11T01:36:58;101973.47;;;24.25;31.52
59240;BME280;45010;53.640;10.578;2023-02-11T01:40:00;101987.63;;;24.33;31.61
59240;BME280;45010;53.640;10.578;2023-02-11T01:43:01;101992.59;;;24.36;31.51
59240;BME280;45010;53.640;10.578;2023-02-11T01:49:27;101987.03;;;24.30;31.58
59240;BME280;45010;53.640;10.578;2023-02-11T01:52:33;101989.03;;;24.28;31.58
59240;BME280;45010;53.640;10.578;2023-02-11T01:55:35;101988.44;;;24.26;31.31
59240;BME280;45010;53.640;10.578;2023-02-11T01:58:58;101980.81;;;24.23;31.68
59240;BME280;45010;53.640;10.578;2023-02-11T02:02:05;101985.34;;;24.23;31.43
59240;BME280;45010;53.640;10.578;2023-02-11T02:05:37;101977.53;;;24.21;31.73
59240;BME280;45010;53.640;10.578;2023-02-11T02:08:48;101966.44;;;24.17;31.69
59240;BME280;45010;53.640;10.578;2023-02-11T02:11:51;101970.34;;;24.15;31.74
59240;BME280;45010;53.640;10.578;2023-02-11T02:15:10;101979.53;;;24.12;31.49
59240;BME280;45010;53.640;10.578;2023-02-11T02:25:34;101983.16;;;24.04;31.61
59240;BME280;45010;53.640;10.578;2023-02-11T02:32:34;101977.63;;;23.99;31.56
59240;BME280;45010;53.640;10.578;2023-02-11T02:36:17;101969.16;;;23.96;31.63
59240;BME280;45010;53.640;10.578;2023-02-11T02:39:25;101951.53;;;23.88;31.78
59240;BME280;45010;53.640;10.578;2023-02-11T02:42:28;101964.44;;;23.91;31.88
59240;BME280;45010;53.640;10.578;2023-02-11T02:45:28;101958.50;;;23.89;32.02
59240;BME280;45010;53.640;10.578;2023-02-11T02:48:31;101939.16;;;23.80;31.83
59240;BME280;45010;53.640;10.578;2023-02-11T02:51:41;101955.59;;;23.84;31.97
59240;BME280;45010;53.640;10.578;2023-02-11T03:02:14;101952.06;;;23.76;31.96
59240;BME280;45010;53.640;10.578;2023-02-11T03:11:09;101923.53;;;23.70;31.82
59240;BME280;45010;53.640;10.578;2023-02-11T03:14:13;101949.34;;;23.70;32.24
59240;BME280;45010;53.640;10.578;2023-02-11T03:17:15;101940.72;;;23.68;31.87
59240;BME280;45010;53.640;10.578;2023-02-11T03:20:18;101930.03;;;23.61;31.98
59240;BME280;45010;53.640;10.578;2023-02-11T03:23:32;101944.00;;;23.63;32.33
59240;BME280;45010;53.640;10.578;2023-02-11T03:26:41;101942.31;;;23.62;31.85
59240;BME280;45010;53.640;10.578;2023-02-11T03:30:05;101948.66;;;23.61;32.33
59240;BME280;45010;53.640;10.578;2023-02-11T03:33:25;101932.84;;;23.53;32.04
59240;BME280;45010;53.640;10.578;2023-02-11T03:36:43;101933.28;;;23.56;32.22
59240;BME280;45010;53.640;10.578;2023-02-11T03:40:14;101918.50;;;23.54;32.30
59240;BME280;45010;53.640;10.578;2023-02-11T03:43:19;101908.22;;;23.50;32.42
59240;BME280;45010;53.640;10.578;2023-02-11T03:46:24;101892.81;;;23.39;32.39
59240;BME280;45010;53.640;10.578;2023-02-11T03:49:27;101899.63;;;23.48;32.15
59240;BME280;45010;53.640;10.578;2023-02-11T03:52:28;101898.00;;;23.47;32.21
59240;BME280;45010;53.640;10.578;2023-02-11T03:55:32;101886.84;;;23.37;32.29
59240;BME280;45010;53.640;10.578;2023-02-11T03:58:34;101899.38;;;23.43;32.23
59240;BME280;45010;53.640;10.578;2023-02-11T04:01:34;101888.13;;;23.41;32.44
59240;BME280;45010;53.640;10.578;2023-02-11T04:04:34;101888.13;;;23.41;32.21
59240;BME280;45010;53.640;10.578;2023-02-11T04:07:35;101887.50;;;23.39;32.58
59240;BME280;45010;53.640;10.578;2023-02-11T04:10:35;101895.50;;;23.39;32.23
59240;BME280;45010;53.640;10.578;2023-02-11T04:13:35;101908.16;;;23.37;32.38
59240;BME280;45010;53.640;10.578;2023-02-11T04:16:36;101915.50;;;23.35;32.77
59240;BME280;45010;53.640;10.578;2023-02-11T04:19:36;101924.53;;;23.34;32.34
59240;BME280;45010;53.640;10.578;2023-02-11T04:22:37;101932.50;;;23.34;32.67
59240;BME280;45010;53.640;10.578;2023-02-11T04:25:37;101938.84;;;23.33;32.31
59240;BME280;45010;53.640;10.578;2023-02-11T04:28:37;101944.53;;;23.30;32.86
59240;BME280;45010;53.640;10.578;2023-02-11T04:31:38;101946.19;;;23.31;32.65
59240;BME280;45010;53.640;10.578;2023-02-11T04:34:38;101955.16;;;23.30;32.41
59240;BME280;45010;53.640;10.578;2023-02-11T04:37:38;101943.69;;;23.29;32.46
59240;BME280;45010;53.640;10.578;2023-02-11T04:40:39;101926.41;;;23.18;32.57
59240;BME280;45010;53.640;10.578;2023-02-11T04:43:39;101938.56;;;23.28;32.49
59240;BME280;45010;53.640;10.578;2023-02-11T04:46:40;101928.94;;;23.27;32.88
59240;BME280;45010;53.640;10.578;2023-02-11T04:49:41;101903.84;;;23.14;32.69
59240;BME280;45010;53.640;10.578;2023-02-11T04:52:41;101919.50;;;23.24;32.49
59240;BME280;45010;53.640;10.578;2023-02-11T04:55:41;101917.66;;;23.24;32.43
59240;BME280;45010;53.640;10.578;2023-02-11T04:58:42;101917.03;;;23.22;32.91
59240;BME280;45010;53.640;10.578;2023-02-11T05:01:42;101906.38;;;23.22;32.88
59240;BME280;45010;53.640;10.578;2023-02-11T05:04:43;101907.41;;;23.21;32.51
59240;BME280;45010;53.640;10.578;2023-02-11T05:07:43;101910.06;;;23.21;32.71
59240;BME280;45010;53.640;10.578;2023-02-11T05:10:45;101902.44;;;23.18;32.83
59240;BME280;45010;53.640;10.578;2023-02-11T05:13:47;101886.88;;;23.15;32.83
59240;BME280;45010;53.640;10.578;2023-02-11T05:16:47;101891.63;;;23.20;32.88
59240;BME280;45010;53.640;10.578;2023-02-11T05:19:47;101889.56;;;23.15;32.90
59240;BME280;45010;53.640;10.578;2023-02-11T05:22:48;101899.00;;;23.18;32.65
59240;BME280;45010;53.640;10.578;2023-02-11T05:25:48;101893.66;;;23.18;32.79
59240;BME280;45010;53.640;10.578;2023-02-11T05:28:48;101892.81;;;23.17;32.63
59240;BME280;45010;53.640;10.578;2023-02-11T05:31:49;101885.88;;;23.16;32.75
59240;BME280;45010;53.640;10.578;2023-02-11T05:34:49;101890.34;;;23.16;33.07
59240;BME280;45010;53.640;10.578;2023-02-11T05:37:49;101886.06;;;23.15;32.63
59240;BME280;45010;53.640;10.578;2023-02-11T05:40:50;101885.88;;;23.16;32.71
59240;BME280;45010;53.640;10.578;2023-02-11T05:43:50;101885.03;;;23.16;32.87
59240;BME280;45010;53.640;10.578;2023-02-11T05:46:51;101866.59;;;23.14;32.97
59240;BME280;45010;53.640;10.578;2023-02-11T05:49:51;101847.75;;;23.09;32.91
59240;BME280;45010;53.640;10.578;2023-02-11T05:52:54;101843.66;;;23.13;32.89
59240;BME280;45010;53.640;10.578;2023-02-11T05:55:55;101836.69;;;23.12;33.10
59240;BME280;45010;53.640;10.578;2023-02-11T05:58:57;101834.03;;;23.12;32.77
59240;BME280;45010;53.640;10.578;2023-02-11T06:01:58;101841.22;;;23.11;32.74
59240;BME280;45010;53.640;10.578;2023-02-11T06:04:58;101835.06;;;23.11;32.88
59240;BME280;45010;53.640;10.578;2023-02-11T06:07:59;101851.03;;;23.11;32.88
59240;BME280;45010;53.640;10.578;2023-02-11T06:10:59;101851.03;;;23.11;32.78
59240;BME280;45010;53.640;10.578;2023-02-11T06:14:00;101837.47;;;23.06;33.09
59240;BME280;45010;53.640;10.578;2023-02-11T06:17:00;101844.06;;;23.10;32.88
59240;BME280;45010;53.640;10.578;2023-02-11T06:20:01;101830.50;;;23.05;33.11
59240;BME280;45010;53.640;10.578;2023-02-11T06:23:02;101830.09;;;23.08;33.24
59240;BME280;45010;53.640;10.578;2023-02-11T06:26:05;101837.03;;;23.02;32.94
59240;BME280;45010;53.640;10.578;2023-02-11T06:29:06;101839.94;;;23.07;33.20
59240;BME280;45010;53.640;10.578;2023-02-11T06:32:06;101857.56;;;23.08;32.98
59240;BME280;45010;53.640;10.578;2023-02-11T06:35:07;101856.72;;;23.08;33.24
59240;BME280;45010;53.640;10.578;2023-02-11T06:38:07;101868.19;;;23.08;33.10
59240;BME280;45010;53.640;10.578;2023-02-11T06:41:12;101856.19;;;22.91;32.87
59240;BME280;45010;53.640;10.578;2023-02-11T06:44:13;101876.19;;;23.08;32.89
59240;BME280;45010;53.640;10.578;2023-02-11T06:47:13;101885.00;;;23.09;33.33
59240;BME280;45010;53.640;10.578;2023-02-11T06:50:14;101893.16;;;23.07;33.07
59240;BME280;45010;53.640;10.578;2023-02-11T06:53:14;101908.94;;;23.09;33.18
59240;BME280;45010;53.640;10.578;2023-02-11T06:56:17;101889.41;;;23.02;33.16
59240;BME280;45010;53.640;10.578;2023-02-11T06:59:18;101904.63;;;23.08;33.20
59240;BME280;45010;53.640;10.578;2023-02-11T07:02:19;101920.56;;;23.08;33.04
59240;BME280;45010;53.640;10.578;2023-02-11T07:05:20;101923.25;;;23.08;33.04
59240;BME280;45010;53.640;10.578;2023-02-11T07:08:20;101918.94;;;23.07;33.19
59240;BME280;45010;53.640;10.578;2023-02-11T07:11:23;101910.94;;;23.07;33.18
59240;BME280;45010;53.640;10.578;2023-02-11T07:14:24;101912.75;;;23.00;33.15
59240;BME280;45010;53.640;10.578;2023-02-11T07:17:24;101918.94;;;23.07;33.14
59240;BME280;45010;53.640;10.578;2023-02-11T07:20:25;101916.28;;;23.07;33.52
59240;BME280;45010;53.640;10.578;2023-02-11T07:23:25;101914.38;;;23.01;33.13
59240;BME280;45010;53.640;10.578;2023-02-11T07:26:25;101911.72;;;23.01;33.51
59240;BME280;45010;53.640;10.578;2023-02-11T07:29:26;101922.63;;;23.06;32.97
59240;BME280;45010;53.640;10.578;2023-02-11T07:32:26;101922.63;;;23.06;33.30
59240;BME280;45010;53.640;10.578;2023-02-11T07:35:27;101927.75;;;23.07;33.28
59240;BME280;45010;53.640;10.578;2023-02-11T07:38:27;101927.94;;;23.06;33.08
59240;BME280;45010;53.640;10.578;2023-02-11T07:41:27;101950.88;;;23.07;33.42
59240;BME280;45010;53.640;10.578;2023-02-11T07:44:28;101932.25;;;23.07;32.93
59240;BME280;45010;53.640;10.578;2023-02-11T07:47:28;101936.75;;;23.06;33.40
59240;BME280;45010;53.640;10.578;2023-02-11T07:50:28;101937.56;;;23.07;33.46
59240;BME280;45010;53.640;10.578;2023-02-11T07:53:29;101951.69;;;23.07;33.77
59240;BME280;45010;53.640;10.578;2023-02-11T07:56:29;101946.31;;;23.01;33.17
59240;BME280;45010;53.640;10.578;2023-02-11T07:59:30;101970.50;;;23.06;33.28
59240;BME280;45010;53.640;10.578;2023-02-11T08:02:30;101950.56;;;22.95;33.26
59240;BME280;45010;53.640;10.578;2023-02-11T08:05:30;101957.22;;;23.06;33.32
59240;BME280;45010;53.640;10.578;2023-02-11T08:08:31;101947.94;;;23.02;33.44
59240;BME280;45010;53.640;10.578;2023-02-11T08:11:31;101972.16;;;23.07;33.17
59240;BME280;45010;53.640;10.578;2023-02-11T08:14:32;101976.66;;;23.06;33.42
59240;BME280;45010;53.640;10.578;2023-02-11T08:17:34;101981.16;;;23.06;33.35
59240;BME280;45010;53.640;10.578;2023-02-11T08:20:35;101986.47;;;23.06;33.47
59240;BME280;45010;53.640;10.578;2023-02-11T08:23:36;101980.13;;;23.07;33.36
59240;BME280;45010;53.640;10.578;2023-02-11T08:26:37;101984.56;;;23.00;33.46
59240;BME280;45010;53.640;10.578;2023-02-11T08:29:37;102015.91;;;23.04;33.39
59240;BME280;45010;53.640;10.578;2023-02-11T08:32:38;102017.50;;;22.98;33.49
59240;BME280;45010;53.640;10.578;2023-02-11T08:35:38;102017.56;;;23.05;33.56
59240;BME280;45010;53.640;10.578;2023-02-11T08:38:39;101998.88;;;22.98;33.66
59240;BME280;45010;53.640;10.578;2023-02-11T08:41:40;102006.13;;;23.05;33.23
59240;BME280;45010;53.640;10.578;2023-02-11T08:44:40;102009.78;;;23.04;33.71
59240;BME280;45010;53.640;10.578;2023-02-11T08:47:40;102015.28;;;23.02;34.04
59240;BME280;45010;53.640;10.578;2023-02-11T08:50:41;102018.78;;;23.03;33.71
59240;BME280;45010;53.640;10.578;2023-02-11T08:53:41;102011.44;;;23.05;33.89
59240;BME280;45010;53.640;10.578;2023-02-11T08:56:42;102002.44;;;23.06;34.21
59240;BME280;45010;53.640;10.578;2023-02-11T08:59:42;101998.75;;;23.07;34.34
59240;BME280;45010;53.640;10.578;2023-02-11T09:02:43;101997.13;;;23.06;34.19
59240;BME280;45010;53.640;10.578;2023-02-11T09:05:47;102013.47;;;23.03;34.21
59240;BME280;45010;53.640;10.578;2023-02-11T09:08:51;102005.66;;;23.01;34.44
59240;BME280;45010;53.640;10.578;2023-02-11T09:11:51;102042.63;;;23.11;34.24
59240;BME280;45010;53.640;10.578;2023-02-11T09:14:56;102040.56;;;23.13;34.38
59240;BME280;45010;53.640;10.578;2023-02-11T09:17:57;102018.03;;;23.09;34.38
59240;BME280;45010;53.640;10.578;2023-02-11T09:21:04;102022.59;;;23.15;34.56
59240;BME280;45010;53.640;10.578;2023-02-11T09:24:05;102015.25;;;23.17;34.27
59240;BME280;45010;53.640;10.578;2023-02-11T09:27:08;102022.22;;;23.18;34.14
59240;BME280;45010;53.640;10.578;2023-02-11T09:30:08;102029.19;;;23.19;34.45
59240;BME280;45010;53.640;10.578;2023-02-11T09:33:09;102043.13;;;23.21;34.50
59240;BME280;45010;53.640;10.578;2023-02-11T09:36:09;102032.28;;;23.23;34.29
59240;BME280;45010;53.640;10.578;2023-02-11T09:39:13;102025.13;;;23.23;34.40
59240;BME280;45010;53.640;10.578;2023-02-11T09:42:42;102020.06;;;23.29;34.15
59240;BME280;45010;53.640;10.578;2023-02-11T09:45:44;102013.72;;;23.30;34.33
59240;BME280;45010;53.640;10.578;2023-02-11T09:48:47;102017.88;;;23.32;34.30
59240;BME280;45010;53.640;10.578;2023-02-11T09:52:04;102006.88;;;23.20;33.90
59240;BME280;45010;53.640;10.578;2023-02-11T09:58:34;102036.59;;;23.39;34.05
59240;BME280;45010;53.640;10.578;2023-02-11T10:01:40;102020.72;;;23.31;34.27
59240;BME280;45010;53.640;10.578;2023-02-11T10:04:52;102035.16;;;23.43;34.08
59240;BME280;45010;53.640;10.578;2023-02-11T10:11:29;102040.56;;;23.50;34.17
59240;BME280;45010;53.640;10.578;2023-02-11T10:14:58;102057.34;;;23.50;34.38
59240;BME280;45010;53.640;10.578;2023-02-11T10:18:15;102052.03;;;23.50;34.21
59240;BME280;45010;53.640;10.578;2023-02-11T10:21:33;102061.69;;;23.51;34.23
59240;BME280;45010;53.640;10.578;2023-02-11T10:24:37;102061.47;;;23.53;34.09
59240;BME280;45010;53.640;10.578;2023-02-11T10:27:41;102063.94;;;23.55;33.96
59240;BME280;45010;53.640;10.578;2023-02-11T10:30:54;102054.94;;;23.56;33.84
59240;BME280;45010;53.640;10.578;2023-02-11T10:34:09;102056.41;;;23.58;33.86
59240;BME280;45010;53.640;10.578;2023-02-11T10:37:12;102059.91;;;23.59;33.93
59240;BME280;45010;53.640;10.578;2023-02-11T10:40:25;102071.16;;;23.61;34.09
59240;BME280;45010;53.640;10.578;2023-02-11T10:43:28;102052.41;;;23.47;33.74
59240;BME280;45010;53.640;10.578;2023-02-11T10:46:31;102076.69;;;23.59;34.02
59240;BME280;45010;53.640;10.578;2023-02-11T10:49:41;102079.16;;;23.61;33.78
59240;BME280;45010;53.640;10.578;2023-02-11T10:52:41;102081.06;;;23.67;33.63
59240;BME280;45010;53.640;10.578;2023-02-11T10:55:50;102062.81;;;23.64;33.46
59240;BME280;45010;53.640;10.578;2023-02-11T10:59:06;102068.00;;;23.72;33.82
59240;BME280;45010;53.640;10.578;2023-02-11T11:02:30;102051.75;;;23.67;33.82
59240;BME280;45010;53.640;10.578;2023-02-11T11:05:45;101994.47;;;23.28;33.78
59240;BME280;45010;53.640;10.578;2023-02-11T11:08:49;102050.56;;;23.70;33.63
59240;BME280;45010;53.640;10.578;2023-02-11T11:11:51;102069.25;;;23.76;33.79
59240;BME280;45010;53.640;10.578;2023-02-11T11:15:00;102058.97;;;23.73;33.59
59240;BME280;45010;53.640;10.578;2023-02-11T11:18:14;102069.50;;;23.82;33.71
59240;BME280;45010;53.640;10.578;2023-02-11T11:21:19;102060.88;;;23.80;33.78
59240;BME280;45010;53.640;10.578;2023-02-11T11:24:21;102064.63;;;23.85;33.54
59240;BME280;45010;53.640;10.578;2023-02-11T11:27:23;102049.00;;;23.82;33.46
59240;BME280;45010;53.640;10.578;2023-02-11T11:30:37;102062.16;;;23.84;33.49
59240;BME280;45010;53.640;10.578;2023-02-11T11:33:40;102065.06;;;23.89;33.61
59240;BME280;45010;53.640;10.578;2023-02-11T11:36:42;102059.47;;;23.84;33.23
59240;BME280;45010;53.640;10.578;2023-02-11T11:39:51;102082.69;;;23.90;33.36
59240;BME280;45010;53.640;10.578;2023-02-11T11:46:03;102110.97;;;23.91;33.60
59240;BME280;45010;53.640;10.578;2023-02-11T11:49:24;102109.94;;;23.92;33.39
59240;BME280;45010;53.640;10.578;2023-02-11T11:55:39;102093.72;;;23.87;33.73
59240;BME280;45010;53.640;10.578;2023-02-11T11:58:41;102099.94;;;23.94;33.60
59240;BME280;45010;53.640;10.578;2023-02-11T12:02:14;102105.28;;;23.94;33.57
59240;BME280;45010;53.640;10.578;2023-02-11T12:05:31;102080.22;;;23.88;33.47
59240;BME280;45010;53.640;10.578;2023-02-11T12:08:43;102087.25;;;23.96;33.49
59240;BME280;45010;53.640;10.578;2023-02-11T12:12:00;102081.91;;;23.96;33.65
59240;BME280;45010;53.640;10.578;2023-02-11T12:18:42;102082.31;;;23.93;33.60
59240;BME280;45010;53.640;10.578;2023-02-11T12:21:59;102074.44;;;23.85;33.54
59240;BME280;45010;53.640;10.578;2023-02-11T12:25:16;102091.78;;;24.02;33.40
59240;BME280;45010;53.640;10.578;2023-02-11T12:28:41;102088.09;;;24.03;33.60
59240;BME280;45010;53.640;10.578;2023-02-11T12:41:51;102096.38;;;24.09;33.38
59240;BME280;45010;53.640;10.578;2023-02-11T12:45:20;102084.69;;;24.10;33.57
59240;BME280;45010;53.640;10.578;2023-02-11T12:52:19;102076.31;;;24.13;33.12
59240;BME280;45010;53.640;10.578;2023-02-11T12:55:24;102076.13;;;24.14;33.40
59240;BME280;45010;53.640;10.578;2023-02-11T12:58:29;102065.66;;;24.13;33.49
59240;BME280;45010;53.640;10.578;2023-02-11T13:01:36;102079.22;;;24.18;33.32
59240;BME280;45010;53.640;10.578;2023-02-11T13:04:42;102076.31;;;24.13;33.40
59240;BME280;45010;53.640;10.578;2023-02-11T13:07:45;102091.53;;;24.19;33.21
59240;BME280;45010;53.640;10.578;2023-02-11T13:10:49;102087.84;;;24.20;33.31
59240;BME280;45010;53.640;10.578;2023-02-11T13:13:59;102104.69;;;24.21;33.27
59240;BME280;45010;53.640;10.578;2023-02-11T13:17:04;102078.75;;;24.08;33.32
59240;BME280;45010;53.640;10.578;2023-02-11T13:20:40;102096.47;;;24.22;33.09
59240;BME280;45010;53.640;10.578;2023-02-11T13:27:00;102090.75;;;24.25;33.10
59240;BME280;45010;53.640;10.578;2023-02-11T13:33:36;102093.19;;;24.20;33.13
59240;BME280;45010;53.640;10.578;2023-02-11T13:36:38;102117.00;;;24.28;33.02
59240;BME280;45010;53.640;10.578;2023-02-11T13:39:38;102116.22;;;24.28;33.30
59240;BME280;45010;53.640;10.578;2023-02-11T13:42:53;102132.81;;;24.30;33.17
59240;BME280;45010;53.640;10.578;2023-02-11T13:46:05;102129.34;;;24.29;33.03
59240;BME280;45010;53.640;10.578;2023-02-11T13:49:17;102119.84;;;24.20;33.21
59240;BME280;45010;53.640;10.578;2023-02-11T13:52:33;102135.69;;;24.28;33.20
59240;BME280;45010;53.640;10.578;2023-02-11T13:55:37;102124.34;;;24.20;33.03
59240;BME280;45010;53.640;10.578;2023-02-11T13:58:46;102131.13;;;24.22;33.19
59240;BME280;45010;53.640;10.578;2023-02-11T14:12:29;102178.09;;;24.23;33.24
59240;BME280;45010;53.640;10.578;2023-02-11T14:15:38;102175.66;;;24.28;33.10
59240;BME280;45010;53.640;10.578;2023-02-11T14:21:45;102173.00;;;24.28;33.04
59240;BME280;45010;53.640;10.578;2023-02-11T14:28:14;102203.34;;;24.27;33.21
59240;BME280;45010;53.640;10.578;2023-02-11T14:31:28;102189.50;;;24.17;33.08
59240;BME280;45010;53.640;10.578;2023-02-11T14:34:48;102193.03;;;24.17;33.15
59240;BME280;45010;53.640;10.578;2023-02-11T14:41:21;102208.44;;;24.22;33.25
59240;BME280;45010;53.640;10.578;2023-02-11T14:44:25;102202.28;;;24.22;32.98
59240;BME280;45010;53.640;10.578;2023-02-11T14:47:32;102206.00;;;24.27;33.31
59240;BME280;45010;53.640;10.578;2023-02-11T14:50:48;102208.44;;;24.22;33.20
59240;BME280;45010;53.640;10.578;2023-02-11T14:53:52;102215.03;;;24.26;33.13
59240;BME280;45010;53.640;10.578;2023-02-11T14:57:07;102217.69;;;24.26;33.23
59240;BME280;45010;53.640;10.578;2023-02-11T15:00:21;102214.78;;;24.21;33.26
59240;BME280;45010;53.640;10.578;2023-02-11T15:03:30;102233.50;;;24.28;33.17
59240;BME280;45010;53.640;10.578;2023-02-11T15:09:40;102228.09;;;24.21;33.07
59240;BME280;45010;53.640;10.578;2023-02-11T15:12:44;102248.06;;;24.25;33.15
59240;BME280;45010;53.640;10.578;2023-02-11T15:15:50;102253.38;;;24.25;32.94
59240;BME280;45010;53.640;10.578;2023-02-11T15:18:57;102249.44;;;24.21;33.11
59240;BME280;45010;53.640;10.578;2023-02-11T15:22:03;102251.47;;;24.19;33.13
59240;BME280;45010;53.640;10.578;2023-02-11T15:25:10;102257.63;;;24.20;32.79
59240;BME280;45010;53.640;10.578;2023-02-11T15:28:23;102272.03;;;24.25;32.87
59240;BME280;45010;53.640;10.578;2023-02-11T15:31:26;102246.50;;;24.16;32.94
59240;BME280;45010;53.640;10.578;2023-02-11T15:34:26;102266.72;;;24.25;33.14
59240;BME280;45010;53.640;10.578;2023-02-11T15:37:28;102270.41;;;24.24;32.90
59240;BME280;45010;53.640;10.578;2023-02-11T15:40:31;102264.16;;;24.17;32.92
59240;BME280;45010;53.640;10.578;2023-02-11T15:43:43;102276.72;;;24.23;32.88
59240;BME280;45010;53.640;10.578;2023-02-11T15:46:44;102279.38;;;24.23;32.96
59240;BME280;45010;53.640;10.578;2023-02-11T15:49:46;102279.38;;;24.23;32.83
59240;BME280;45010;53.640;10.578;2023-02-11T15:52:48;102260.50;;;24.18;33.20
59240;BME280;45010;53.640;10.578;2023-02-11T15:55:50;102267.47;;;24.19;32.79
59240;BME280;45010;53.640;10.578;2023-02-11T15:58:53;102269.56;;;24.24;33.08
59240;BME280;45010;53.640;10.578;2023-02-11T16:02:03;102265.81;;;24.18;33.22
59240;BME280;45010;53.640;10.578;2023-02-11T16:05:07;102281.81;;;24.18;33.04
59240;BME280;45010;53.640;10.578;2023-02-11T16:08:21;102294.56;;;24.23;32.76
59240;BME280;45010;53.640;10.578;2023-02-11T16:11:29;102294.56;;;24.23;33.01
59240;BME280;45010;53.640;10.578;2023-02-11T16:14:33;102299.06;;;24.22;33.05
59240;BME280;45010;53.640;10.578;2023-02-11T16:17:36;102302.75;;;24.21;33.27
59240;BME280;45010;53.640;10.578;2023-02-11T16:20:36;102307.28;;;24.21;33.16
59240;BME280;45010;53.640;10.578;2023-02-11T16:23:38;102308.91;;;24.22;33.37
59240;BME280;45010;53.640;10.578;2023-02-11T16:26:46;102297.81;;;24.18;33.15
59240;BME280;45010;53.640;10.578;2023-02-11T16:29:48;102319.38;;;24.23;33.45
59240;BME280;45010;53.640;10.578;2023-02-11T16:32:51;102319.38;;;24.23;33.22
59240;BME280;45010;53.640;10.578;2023-02-11T16:35:51;102323.72;;;24.24;33.32
59240;BME280;45010;53.640;10.578;2023-02-11T16:38:52;102329.22;;;24.23;33.32
59240;BME280;45010;53.640;10.578;2023-02-11T16:41:52;102341.34;;;24.25;33.44
59240;BME280;45010;53.640;10.578;2023-02-11T16:44:54;102333.66;;;24.15;33.30
59240;BME280;45010;53.640;10.578;2023-02-11T16:47:54;102334.22;;;24.11;33.35
59240;BME280;45010;53.640;10.578;2023-02-11T16:50:55;102354.50;;;24.27;33.33
59240;BME280;45010;53.640;10.578;2023-02-11T16:53:55;102366.63;;;24.29;33.20
59240;BME280;45010;53.640;10.578;2023-02-11T16:56:56;102362.88;;;24.24;33.56
59240;BME280;45010;53.640;10.578;2023-02-11T16:59:57;102361.41;;;24.21;33.32
59240;BME280;45010;53.640;10.578;2023-02-11T17:02:58;102379.97;;;24.29;33.56
59240;BME280;45010;53.640;10.578;2023-02-11T17:05:58;102373.78;;;24.29;33.62
59240;BME280;45010;53.640;10.578;2023-02-11T17:09:01;102372.97;;;24.28;33.44
59240;BME280;45010;53.640;10.578;2023-02-11T17:12:02;102369.66;;;24.26;33.46
59240;BME280;45010;53.640;10.578;2023-02-11T17:15:02;102377.66;;;24.26;33.62
59240;BME280;45010;53.640;10.578;2023-02-11T17:18:02;102389.34;;;24.25;33.45
59240;BME280;45010;53.640;10.578;2023-02-11T17:21:05;102393.03;;;24.24;33.62